sensor_id;sensor_type;location;lat;lon;timestamp;temperature;humidity
2409;DHT22;8463;48.094;7.970;2023-04-01T00:00:55;9.10;33.30
2409;DHT22;8463;48.094;7.970;2023-04-01T00:03:22;9.10;33.30
2409;DHT22;8463;48.094;7.970;2023-04-01T00:05:48;9.10;33.90
2409;DHT22;8463;48.094;7.970;2023-04-01T00:08:14;9.10;33.80
2409;DHT22;8463;48.094;7.970;2023-04-01T00:10:40;8.90;36.40
2409;DHT22;8463;48.094;7.970;2023-04-01T00:13:06;8.90;37.90
2409;DHT22;8463;48.094;7.970;2023-04-01T00:15:31;8.80;38.10
2409;DHT22;8463;48.094;7.970;2023-04-01T00:17:57;8.70;39.40
2409;DHT22;8463;48.094;7.970;2023-04-01T00:20:24;8.70;40.10
2409;DHT22;8463;48.094;7.970;2023-04-01T00:22:50;8.70;42.60
2409;DHT22;8463;48.094;7.970;2023-04-01T00:25:16;8.70;43.70
2409;DHT22;8463;48.094;7.970;2023-04-01T00:27:42;8.70;44.00
2409;DHT22;8463;48.094;7.970;2023-04-01T00:30:08;8.60;46.10
2409;DHT22;8463;48.094;7.970;2023-04-01T00:32:37;8.70;45.50
2409;DHT22;8463;48.094;7.970;2023-04-01T00:35:03;8.70;46.10
2409;DHT22;8463;48.094;7.970;2023-04-01T00:37:30;8.80;45.90
2409;DHT22;8463;48.094;7.970;2023-04-01T00:39:57;8.80;46.20
2409;DHT22;8463;48.094;7.970;2023-04-01T00:42:23;8.70;47.40
2409;DHT22;8463;48.094;7.970;2023-04-01T00:44:54;8.80;46.10
2409;DHT22;8463;48.094;7.970;2023-04-01T00:47:20;8.80;45.90
2409;DHT22;8463;48.094;7.970;2023-04-01T00:49:48;8.80;47.20
2409;DHT22;8463;48.094;7.970;2023-04-01T00:52:18;8.90;45.00
2409;DHT22;8463;48.094;7.970;2023-04-01T00:54:47;8.90;45.60
2409;DHT22;8463;48.094;7.970;2023-04-01T00:57:29;8.90;44.70
2409;DHT22;8463;48.094;7.970;2023-04-01T00:59:56;8.90;46.20
2409;DHT22;8463;48.094;7.970;2023-04-01T01:02:22;8.90;42.40
2409;DHT22;8463;48.094;7.970;2023-04-01T01:04:48;8.90;42.90
2409;DHT22;8463;48.094;7.970;2023-04-01T01:10:24;8.80;47.20
2409;DHT22;8463;48.094;7.970;2023-04-01T01:23:39;8.50;60.10
2409;DHT22;8463;48.094;7.970;2023-04-01T01:29:54;8.60;60.30
2409;DHT22;8463;48.094;7.970;2023-04-01T01:35:27;8.60;60.10
2409;DHT22;8463;48.094;7.970;2023-04-01T01:38:00;8.60;62.50
2409;DHT22;8463;48.094;7.970;2023-04-01T01:40:27;8.60;60.50
2409;DHT22;8463;48.094;7.970;2023-04-01T01:42:59;8.60;61.40
2409;DHT22;8463;48.094;7.970;2023-04-01T01:45:27;8.70;56.50
2409;DHT22;8463;48.094;7.970;2023-04-01T01:47:55;8.80;58.70
2409;DHT22;8463;48.094;7.970;2023-04-01T01:50:22;8.90;54.10
2409;DHT22;8463;48.094;7.970;2023-04-01T01:52:49;8.80;54.60
2409;DHT22;8463;48.094;7.970;2023-04-01T01:55:32;8.80;56.30
2409;DHT22;8463;48.094;7.970;2023-04-01T01:58:02;8.80;56.70
2409;DHT22;8463;48.094;7.970;2023-04-01T02:00:30;8.80;56.60
2409;DHT22;8463;48.094;7.970;2023-04-01T02:02:57;8.90;53.00
2409;DHT22;8463;48.094;7.970;2023-04-01T02:05:25;9.00;51.90
2409;DHT22;8463;48.094;7.970;2023-04-01T02:08:13;9.00;52.60
2409;DHT22;8463;48.094;7.970;2023-04-01T02:10:43;9.00;50.30
2409;DHT22;8463;48.094;7.970;2023-04-01T02:13:21;9.10;48.40
2409;DHT22;8463;48.094;7.970;2023-04-01T02:15:50;9.00;48.30
2409;DHT22;8463;48.094;7.970;2023-04-01T02:18:18;9.10;47.60
2409;DHT22;8463;48.094;7.970;2023-04-01T02:20:46;9.10;49.70
2409;DHT22;8463;48.094;7.970;2023-04-01T02:23:11;9.00;46.60
2409;DHT22;8463;48.094;7.970;2023-04-01T02:25:38;9.10;46.50
2409;DHT22;8463;48.094;7.970;2023-04-01T02:28:06;9.00;47.90
2409;DHT22;8463;48.094;7.970;2023-04-01T02:30:36;9.10;44.10
2409;DHT22;8463;48.094;7.970;2023-04-01T02:33:05;9.10;43.90
2409;DHT22;8463;48.094;7.970;2023-04-01T02:35:35;9.00;47.30
2409;DHT22;8463;48.094;7.970;2023-04-01T02:38:02;9.00;45.20
2409;DHT22;8463;48.094;7.970;2023-04-01T02:40:28;9.00;45.50
2409;DHT22;8463;48.094;7.970;2023-04-01T02:42:53;8.90;46.20
2409;DHT22;8463;48.094;7.970;2023-04-01T02:45:19;8.90;46.70
2409;DHT22;8463;48.094;7.970;2023-04-01T02:47:45;8.80;47.10
2409;DHT22;8463;48.094;7.970;2023-04-01T02:50:11;8.80;47.30
2409;DHT22;8463;48.094;7.970;2023-04-01T02:52:37;8.80;47.70
2409;DHT22;8463;48.094;7.970;2023-04-01T02:55:03;8.80;46.10
2409;DHT22;8463;48.094;7.970;2023-04-01T02:57:29;8.80;45.50
2409;DHT22;8463;48.094;7.970;2023-04-01T02:59:55;8.80;44.40
2409;DHT22;8463;48.094;7.970;2023-04-01T03:02:20;8.80;44.00
2409;DHT22;8463;48.094;7.970;2023-04-01T03:04:46;8.80;39.60
2409;DHT22;8463;48.094;7.970;2023-04-01T03:07:12;8.80;42.80
2409;DHT22;8463;48.094;7.970;2023-04-01T03:09:37;8.70;43.00
2409;DHT22;8463;48.094;7.970;2023-04-01T03:12:03;8.60;46.60
2409;DHT22;8463;48.094;7.970;2023-04-01T03:14:31;8.60;47.00
2409;DHT22;8463;48.094;7.970;2023-04-01T03:16:56;8.50;49.80
2409;DHT22;8463;48.094;7.970;2023-04-01T03:19:22;8.40;51.30
2409;DHT22;8463;48.094;7.970;2023-04-01T03:21:47;8.30;57.90
2409;DHT22;8463;48.094;7.970;2023-04-01T03:24:13;8.40;59.30
2409;DHT22;8463;48.094;7.970;2023-04-01T03:26:39;8.30;61.20
2409;DHT22;8463;48.094;7.970;2023-04-01T03:29:05;8.30;62.00
2409;DHT22;8463;48.094;7.970;2023-04-01T03:31:31;8.30;63.30
2409;DHT22;8463;48.094;7.970;2023-04-01T03:33:57;8.30;64.40
2409;DHT22;8463;48.094;7.970;2023-04-01T03:36:22;8.30;64.70
2409;DHT22;8463;48.094;7.970;2023-04-01T03:38:48;8.30;65.90
2409;DHT22;8463;48.094;7.970;2023-04-01T03:41:15;8.30;66.30
2409;DHT22;8463;48.094;7.970;2023-04-01T03:43:41;8.30;68.10
2409;DHT22;8463;48.094;7.970;2023-04-01T03:46:07;8.30;67.50
2409;DHT22;8463;48.094;7.970;2023-04-01T03:48:36;8.50;67.10
2409;DHT22;8463;48.094;7.970;2023-04-01T03:51:06;8.40;63.30
2409;DHT22;8463;48.094;7.970;2023-04-01T03:53:31;8.40;64.10
2409;DHT22;8463;48.094;7.970;2023-04-01T03:55:57;8.30;60.90
2409;DHT22;8463;48.094;7.970;2023-04-01T03:58:22;8.50;60.00
2409;DHT22;8463;48.094;7.970;2023-04-01T04:00:48;8.40;60.60
2409;DHT22;8463;48.094;7.970;2023-04-01T04:03:14;8.40;61.70
2409;DHT22;8463;48.094;7.970;2023-04-01T04:05:47;8.40;57.50
2409;DHT22;8463;48.094;7.970;2023-04-01T04:08:16;8.40;58.50
2409;DHT22;8463;48.094;7.970;2023-04-01T04:10:43;8.40;59.40
2409;DHT22;8463;48.094;7.970;2023-04-01T04:13:09;8.40;58.50
2409;DHT22;8463;48.094;7.970;2023-04-01T04:15:35;8.40;57.60
2409;DHT22;8463;48.094;7.970;2023-04-01T04:18:01;8.40;58.20
2409;DHT22;8463;48.094;7.970;2023-04-01T04:20:26;8.30;59.80
2409;DHT22;8463;48.094;7.970;2023-04-01T04:22:52;8.30;58.30
2409;DHT22;8463;48.094;7.970;2023-04-01T04:25:17;8.30;59.90
2409;DHT22;8463;48.094;7.970;2023-04-01T04:27:43;8.30;57.90
2409;DHT22;8463;48.094;7.970;2023-04-01T04:30:11;8.40;58.80
2409;DHT22;8463;48.094;7.970;2023-04-01T04:32:37;8.30;57.60
2409;DHT22;8463;48.094;7.970;2023-04-01T04:35:03;8.30;57.50
2409;DHT22;8463;48.094;7.970;2023-04-01T04:37:31;8.40;56.70
2409;DHT22;8463;48.094;7.970;2023-04-01T04:39:56;8.40;56.00
2409;DHT22;8463;48.094;7.970;2023-04-01T04:42:22;8.50;56.60
2409;DHT22;8463;48.094;7.970;2023-04-01T04:44:48;8.50;55.30
2409;DHT22;8463;48.094;7.970;2023-04-01T04:49:39;8.40;56.30
2409;DHT22;8463;48.094;7.970;2023-04-01T04:52:05;8.50;57.10
2409;DHT22;8463;48.094;7.970;2023-04-01T04:54:31;8.50;56.50
2409;DHT22;8463;48.094;7.970;2023-04-01T04:56:56;8.50;56.50
2409;DHT22;8463;48.094;7.970;2023-04-01T04:59:22;8.50;55.30
2409;DHT22;8463;48.094;7.970;2023-04-01T05:01:48;8.50;57.10
2409;DHT22;8463;48.094;7.970;2023-04-01T05:04:13;8.50;56.80
2409;DHT22;8463;48.094;7.970;2023-04-01T05:06:42;8.50;57.20
2409;DHT22;8463;48.094;7.970;2023-04-01T05:09:09;8.50;57.80
2409;DHT22;8463;48.094;7.970;2023-04-01T05:11:34;8.50;60.10
2409;DHT22;8463;48.094;7.970;2023-04-01T05:14:00;8.60;57.90
2409;DHT22;8463;48.094;7.970;2023-04-01T05:16:26;8.60;57.20
2409;DHT22;8463;48.094;7.970;2023-04-01T05:18:51;8.60;58.40
2409;DHT22;8463;48.094;7.970;2023-04-01T05:21:17;8.50;58.10
2409;DHT22;8463;48.094;7.970;2023-04-01T05:23:43;8.60;58.00
2409;DHT22;8463;48.094;7.970;2023-04-01T05:26:13;8.60;59.00
2409;DHT22;8463;48.094;7.970;2023-04-01T05:28:39;8.60;57.90
2409;DHT22;8463;48.094;7.970;2023-04-01T05:31:08;8.60;58.40
2409;DHT22;8463;48.094;7.970;2023-04-01T05:33:34;8.60;56.30
2409;DHT22;8463;48.094;7.970;2023-04-01T05:36:14;8.70;57.30
2409;DHT22;8463;48.094;7.970;2023-04-01T05:38:40;8.70;55.50
2409;DHT22;8463;48.094;7.970;2023-04-01T05:41:07;8.70;55.80
2409;DHT22;8463;48.094;7.970;2023-04-01T05:43:36;8.70;56.20
2409;DHT22;8463;48.094;7.970;2023-04-01T05:46:01;8.80;55.20
2409;DHT22;8463;48.094;7.970;2023-04-01T05:48:27;8.80;55.30
2409;DHT22;8463;48.094;7.970;2023-04-01T05:50:53;8.80;55.40
2409;DHT22;8463;48.094;7.970;2023-04-01T05:53:18;8.80;55.50
2409;DHT22;8463;48.094;7.970;2023-04-01T05:55:44;8.80;55.60
2409;DHT22;8463;48.094;7.970;2023-04-01T05:58:10;8.80;52.90
2409;DHT22;8463;48.094;7.970;2023-04-01T06:00:36;8.80;53.80
2409;DHT22;8463;48.094;7.970;2023-04-01T06:03:01;8.80;54.20
2409;DHT22;8463;48.094;7.970;2023-04-01T06:05:29;8.80;54.50
2409;DHT22;8463;48.094;7.970;2023-04-01T06:07:59;8.90;53.20
2409;DHT22;8463;48.094;7.970;2023-04-01T06:10:43;8.90;53.10
2409;DHT22;8463;48.094;7.970;2023-04-01T06:13:40;9.00;52.50
2409;DHT22;8463;48.094;7.970;2023-04-01T06:16:11;8.90;52.90
2409;DHT22;8463;48.094;7.970;2023-04-01T06:21:53;8.90;52.40
2409;DHT22;8463;48.094;7.970;2023-04-01T06:24:27;9.00;51.80
2409;DHT22;8463;48.094;7.970;2023-04-01T06:32:49;9.00;51.90
2409;DHT22;8463;48.094;7.970;2023-04-01T06:40:35;9.00;51.90
2409;DHT22;8463;48.094;7.970;2023-04-01T06:54:18;9.20;48.50
2409;DHT22;8463;48.094;7.970;2023-04-01T06:56:48;9.20;48.50
2409;DHT22;8463;48.094;7.970;2023-04-01T06:59:22;9.10;49.10
2409;DHT22;8463;48.094;7.970;2023-04-01T07:01:55;9.10;50.20
2409;DHT22;8463;48.094;7.970;2023-04-01T07:04:40;9.10;49.20
2409;DHT22;8463;48.094;7.970;2023-04-01T07:09:50;9.20;48.90
2409;DHT22;8463;48.094;7.970;2023-04-01T07:15:01;9.20;49.90
2409;DHT22;8463;48.094;7.970;2023-04-01T07:17:32;9.20;50.50
2409;DHT22;8463;48.094;7.970;2023-04-01T07:20:09;9.20;49.60
2409;DHT22;8463;48.094;7.970;2023-04-01T07:22:40;9.30;50.20
2409;DHT22;8463;48.094;7.970;2023-04-01T07:25:14;9.30;50.90
2409;DHT22;8463;48.094;7.970;2023-04-01T07:27:42;9.30;50.30
2409;DHT22;8463;48.094;7.970;2023-04-01T07:30:15;9.30;51.50
2409;DHT22;8463;48.094;7.970;2023-04-01T07:35:46;9.30;50.40
2409;DHT22;8463;48.094;7.970;2023-04-01T07:38:45;9.30;49.70
2409;DHT22;8463;48.094;7.970;2023-04-01T07:44:58;9.40;48.20
2409;DHT22;8463;48.094;7.970;2023-04-01T07:52:31;9.40;49.60
2409;DHT22;8463;48.094;7.970;2023-04-01T07:55:10;9.40;49.40
2409;DHT22;8463;48.094;7.970;2023-04-01T07:57:58;9.40;51.30
2409;DHT22;8463;48.094;7.970;2023-04-01T08:00:42;9.40;51.80
2409;DHT22;8463;48.094;7.970;2023-04-01T08:06:18;9.40;49.60
2409;DHT22;8463;48.094;7.970;2023-04-01T08:08:45;9.50;48.30
2409;DHT22;8463;48.094;7.970;2023-04-01T08:14:04;9.50;50.20
2409;DHT22;8463;48.094;7.970;2023-04-01T08:17:02;9.50;50.00
2409;DHT22;8463;48.094;7.970;2023-04-01T08:25:19;9.60;49.10
2409;DHT22;8463;48.094;7.970;2023-04-01T08:27:53;9.60;48.50
2409;DHT22;8463;48.094;7.970;2023-04-01T08:30:24;9.60;46.10
2409;DHT22;8463;48.094;7.970;2023-04-01T08:32:58;9.60;46.50
2409;DHT22;8463;48.094;7.970;2023-04-01T08:35:36;9.60;46.00
2409;DHT22;8463;48.094;7.970;2023-04-01T08:38:29;9.50;46.80
2409;DHT22;8463;48.094;7.970;2023-04-01T08:41:05;9.50;47.20
2409;DHT22;8463;48.094;7.970;2023-04-01T08:54:37;9.50;50.20
2409;DHT22;8463;48.094;7.970;2023-04-01T09:02:43;9.30;52.80
2409;DHT22;8463;48.094;7.970;2023-04-01T09:08:52;9.30;55.50
2409;DHT22;8463;48.094;7.970;2023-04-01T09:11:08;9.40;53.00
2409;DHT22;8463;48.094;7.970;2023-04-01T09:13:55;9.40;53.90
2409;DHT22;8463;48.094;7.970;2023-04-01T09:22:05;9.40;55.60
2409;DHT22;8463;48.094;7.970;2023-04-01T09:24:57;9.30;57.90
2409;DHT22;8463;48.094;7.970;2023-04-01T09:27:45;9.30;55.20
2409;DHT22;8463;48.094;7.970;2023-04-01T09:36:28;9.40;56.60
2409;DHT22;8463;48.094;7.970;2023-04-01T09:38:58;9.40;56.30
2409;DHT22;8463;48.094;7.970;2023-04-01T09:41:34;9.40;57.90
2409;DHT22;8463;48.094;7.970;2023-04-01T09:44:03;9.30;56.70
2409;DHT22;8463;48.094;7.970;2023-04-01T09:46:40;9.20;58.00
2409;DHT22;8463;48.094;7.970;2023-04-01T09:57:22;9.30;58.00
2409;DHT22;8463;48.094;7.970;2023-04-01T10:36:48;9.90;47.40
2409;DHT22;8463;48.094;7.970;2023-04-01T11:17:23;9.80;47.90
2409;DHT22;8463;48.094;7.970;2023-04-01T11:34:01;9.80;45.20
2409;DHT22;8463;48.094;7.970;2023-04-01T11:43:11;9.80;46.30
2409;DHT22;8463;48.094;7.970;2023-04-01T11:59:42;9.80;46.90
2409;DHT22;8463;48.094;7.970;2023-04-01T12:08:15;9.80;47.10
2409;DHT22;8463;48.094;7.970;2023-04-01T12:19:19;9.90;45.60
2409;DHT22;8463;48.094;7.970;2023-04-01T12:27:52;10.00;44.40
2409;DHT22;8463;48.094;7.970;2023-04-01T12:38:26;10.10;42.40
2409;DHT22;8463;48.094;7.970;2023-04-01T12:41:36;10.20;41.90
2409;DHT22;8463;48.094;7.970;2023-04-01T12:55:39;10.30;39.10
2409;DHT22;8463;48.094;7.970;2023-04-01T13:07:12;10.50;36.80
2409;DHT22;8463;48.094;7.970;2023-04-01T13:25:54;10.60;37.60
2409;DHT22;8463;48.094;7.970;2023-04-01T13:28:53;10.60;37.80
2409;DHT22;8463;48.094;7.970;2023-04-01T13:36:59;10.70;36.70
2409;DHT22;8463;48.094;7.970;2023-04-01T13:45:03;10.80;35.70
2409;DHT22;8463;48.094;7.970;2023-04-01T13:56:18;10.90;33.70
2409;DHT22;8463;48.094;7.970;2023-04-01T14:10:13;11.10;32.50
2409;DHT22;8463;48.094;7.970;2023-04-01T14:12:58;11.30;34.40
2409;DHT22;8463;48.094;7.970;2023-04-01T14:21:58;11.60;33.30
2409;DHT22;8463;48.094;7.970;2023-04-01T14:30:35;11.80;31.90
2409;DHT22;8463;48.094;7.970;2023-04-01T14:35:37;11.90;30.30
2409;DHT22;8463;48.094;7.970;2023-04-01T14:41:11;12.00;31.30
2409;DHT22;8463;48.094;7.970;2023-04-01T14:49:39;11.90;29.20
2409;DHT22;8463;48.094;7.970;2023-04-01T14:52:16;11.90;28.10
2409;DHT22;8463;48.094;7.970;2023-04-01T14:54:44;11.70;29.80
2409;DHT22;8463;48.094;7.970;2023-04-01T14:57:12;11.60;30.00
2409;DHT22;8463;48.094;7.970;2023-04-01T15:00:15;11.70;31.00
2409;DHT22;8463;48.094;7.970;2023-04-01T15:30:29;11.50;33.40
2409;DHT22;8463;48.094;7.970;2023-04-01T15:33:29;11.60;34.60
2409;DHT22;8463;48.094;7.970;2023-04-01T15:38:58;11.60;32.80
2409;DHT22;8463;48.094;7.970;2023-04-01T15:46:58;11.60;32.20
2409;DHT22;8463;48.094;7.970;2023-04-01T15:49:44;11.60;29.10
2409;DHT22;8463;48.094;7.970;2023-04-01T16:00:29;11.20;29.20
2409;DHT22;8463;48.094;7.970;2023-04-01T16:06:10;11.00;31.60
2409;DHT22;8463;48.094;7.970;2023-04-01T16:14:11;10.50;41.90
2409;DHT22;8463;48.094;7.970;2023-04-01T16:17:17;10.50;43.30
2409;DHT22;8463;48.094;7.970;2023-04-01T16:20:18;10.10;49.80
2409;DHT22;8463;48.094;7.970;2023-04-01T16:23:00;10.10;51.30
2409;DHT22;8463;48.094;7.970;2023-04-01T16:25:44;10.10;51.30
2409;DHT22;8463;48.094;7.970;2023-04-01T16:30:48;10.20;50.80
2409;DHT22;8463;48.094;7.970;2023-04-01T16:42:19;10.40;48.60
2409;DHT22;8463;48.094;7.970;2023-04-01T16:45:17;10.40;48.60
2409;DHT22;8463;48.094;7.970;2023-04-01T16:53:50;10.70;47.50
2409;DHT22;8463;48.094;7.970;2023-04-01T16:56:36;10.70;47.80
2409;DHT22;8463;48.094;7.970;2023-04-01T16:59:19;10.70;43.80
2409;DHT22;8463;48.094;7.970;2023-04-01T17:01:55;10.80;44.10
2409;DHT22;8463;48.094;7.970;2023-04-01T17:10:00;10.80;43.10
2409;DHT22;8463;48.094;7.970;2023-04-01T17:35:58;10.70;39.40
2409;DHT22;8463;48.094;7.970;2023-04-01T17:57:46;10.70;41.70
2409;DHT22;8463;48.094;7.970;2023-04-01T18:08:37;10.50;42.60
2409;DHT22;8463;48.094;7.970;2023-04-01T18:11:22;10.50;43.30
2409;DHT22;8463;48.094;7.970;2023-04-01T18:22:09;10.40;38.90
2409;DHT22;8463;48.094;7.970;2023-04-01T18:24:49;10.40;38.10
2409;DHT22;8463;48.094;7.970;2023-04-01T18:27:29;10.40;35.90
2409;DHT22;8463;48.094;7.970;2023-04-01T18:30:15;10.40;37.50
2409;DHT22;8463;48.094;7.970;2023-04-01T18:33:03;10.40;35.60
2409;DHT22;8463;48.094;7.970;2023-04-01T18:38:40;10.40;33.90
2409;DHT22;8463;48.094;7.970;2023-04-01T18:50:36;10.20;33.30
2409;DHT22;8463;48.094;7.970;2023-04-01T18:52:42;10.20;33.30
2409;DHT22;8463;48.094;7.970;2023-04-01T18:55:21;10.20;33.30
2409;DHT22;8463;48.094;7.970;2023-04-01T18:58:45;10.20;33.30
2409;DHT22;8463;48.094;7.970;2023-04-01T19:00:55;10.10;33.20
2409;DHT22;8463;48.094;7.970;2023-04-01T19:03:54;10.20;32.20
2409;DHT22;8463;48.094;7.970;2023-04-01T19:11:53;10.20;33.30
2409;DHT22;8463;48.094;7.970;2023-04-01T19:14:46;10.10;34.00
2409;DHT22;8463;48.094;7.970;2023-04-01T19:20:34;10.00;35.10
2409;DHT22;8463;48.094;7.970;2023-04-01T19:25:42;9.90;36.70
2409;DHT22;8463;48.094;7.970;2023-04-01T19:37:20;10.00;33.70
2409;DHT22;8463;48.094;7.970;2023-04-01T20:04:25;9.70;36.60
2409;DHT22;8463;48.094;7.970;2023-04-01T20:07:13;9.70;37.20
2409;DHT22;8463;48.094;7.970;2023-04-01T20:18:05;9.60;36.90
2409;DHT22;8463;48.094;7.970;2023-04-01T20:20:37;9.60;33.80
2409;DHT22;8463;48.094;7.970;2023-04-01T20:25:55;9.80;31.00
2409;DHT22;8463;48.094;7.970;2023-04-01T20:28:30;9.90;31.70
2409;DHT22;8463;48.094;7.970;2023-04-01T20:31:50;10.10;27.70
2409;DHT22;8463;48.094;7.970;2023-04-01T20:44:11;10.10;26.60
2409;DHT22;8463;48.094;7.970;2023-04-01T20:47:16;10.00;27.80
2409;DHT22;8463;48.094;7.970;2023-04-01T20:53:01;10.00;27.20
2409;DHT22;8463;48.094;7.970;2023-04-01T20:58:38;10.10;27.60
2409;DHT22;8463;48.094;7.970;2023-04-01T21:01:13;10.00;29.20
2409;DHT22;8463;48.094;7.970;2023-04-01T21:03:56;10.10;28.90
2409;DHT22;8463;48.094;7.970;2023-04-01T21:11:46;10.00;32.30
2409;DHT22;8463;48.094;7.970;2023-04-01T21:20:38;9.50;40.50
2409;DHT22;8463;48.094;7.970;2023-04-01T21:26:10;9.50;41.60
2409;DHT22;8463;48.094;7.970;2023-04-01T21:34:42;9.30;43.50
2409;DHT22;8463;48.094;7.970;2023-04-01T21:39:56;9.50;43.80
2409;DHT22;8463;48.094;7.970;2023-04-01T21:45:20;9.20;45.00
2409;DHT22;8463;48.094;7.970;2023-04-01T22:07:13;9.00;47.90
2409;DHT22;8463;48.094;7.970;2023-04-01T22:09:44;9.00;48.60
2409;DHT22;8463;48.094;7.970;2023-04-01T22:12:13;9.00;49.50
2409;DHT22;8463;48.094;7.970;2023-04-01T22:20:40;8.90;51.30
2409;DHT22;8463;48.094;7.970;2023-04-01T22:31:29;8.90;52.90
2409;DHT22;8463;48.094;7.970;2023-04-01T22:36:57;8.70;52.70
2409;DHT22;8463;48.094;7.970;2023-04-01T22:50:34;8.80;54.30
2409;DHT22;8463;48.094;7.970;2023-04-01T22:55:57;8.70;54.60
2409;DHT22;8463;48.094;7.970;2023-04-01T22:58:34;8.80;53.90
2409;DHT22;8463;48.094;7.970;2023-04-01T23:01:17;8.80;54.10
2409;DHT22;8463;48.094;7.970;2023-04-01T23:03:48;8.80;54.90
2409;DHT22;8463;48.094;7.970;2023-04-01T23:06:35;8.80;55.60
2409;DHT22;8463;48.094;7.970;2023-04-01T23:20:21;8.80;55.00
2409;DHT22;8463;48.094;7.970;2023-04-01T23:35:57;8.70;59.00
2409;DHT22;8463;48.094;7.970;2023-04-01T23:38:37;8.70;58.80
2409;DHT22;8463;48.094;7.970;2023-04-01T23:41:04;8.70;58.80
2409;DHT22;8463;48.094;7.970;2023-04-01T23:43:38;8.70;59.10
2409;DHT22;8463;48.094;7.970;2023-04-01T23:46:06;8.80;59.30
2409;DHT22;8463;48.094;7.970;2023-04-01T23:48:40;8.80;58.90
2409;DHT22;8463;48.094;7.970;2023-04-01T23:53:45;8.90;59.90
2409;DHT22;8463;48.094;7.970;2023-04-01T23:56:11;8.90;60.40
2409;DHT22;8463;48.094;7.970;2023-04-01T23:58:40;9.40;60.70
